Time;durP1;ratioP1;P1;durP2;ratioP2;P2;SDS_P1;SDS_P2;PMS_P1;PMS_P2;Temp;Humidity;BMP_temperature;BMP_pressure;BME280_temperature;BME280_humidity;BME280_pressure;Samples;Min_cycle;Max_cycle;Signal;HPM_P1;HPM_P2
2023/02/08 00:01:52;;;;;;;7.27;5.53;;;;;;;;;;5038501;28;20442;-89
2023/02/08 00:04:18;;;;;;;5.87;4.97;;;;;;;;;;5037589;28;20264;-89
2023/02/08 00:06:45;;;;;;;5.67;5.13;;;;;;;;;;5035020;28;20181;-87
2023/02/08 00:09:11;;;;;;;5.97;5.10;;;;;;;;;;5034626;28;20189;-88
2023/02/08 00:11:37;;;;;;;7.23;5.37;;;;;;;;;;5034524;28;20170;-88
2023/02/08 00:14:03;;;;;;;6.37;5.07;;;;;;;;;;5026537;28;20897;-88
2023/02/08 00:16:29;;;;;;;5.40;4.90;;;;;;;;;;5032365;28;20209;-88
2023/02/08 00:18:55;;;;;;;5.63;4.73;;;;;;;;;;5035579;28;20186;-88
2023/02/08 00:21:21;;;;;;;6.27;4.97;;;;;;;;;;5034773;28;20190;-87
2023/02/08 00:23:48;;;;;;;5.30;4.50;;;;;;;;;;5028326;28;20811;-89
2023/02/08 00:26:14;;;;;;;5.97;4.97;;;;;;;;;;5031303;28;20190;-88
2023/02/08 00:28:41;;;;;;;6.13;4.83;;;;;;;;;;5032513;28;20219;-87
2023/02/08 00:31:07;;;;;;;5.40;4.77;;;;;;;;;;5035247;28;20269;-88
2023/02/08 00:33:36;;;;;;;6.43;5.33;;;;;;;;;;5032344;28;20270;-87
2023/02/08 00:36:03;;;;;;;5.67;4.90;;;;;;;;;;5025646;28;20493;-87
2023/02/08 00:38:30;;;;;;;5.97;4.77;;;;;;;;;;5033569;28;20189;-88
2023/02/08 00:40:56;;;;;;;7.90;5.33;;;;;;;;;;5034654;28;20186;-88
2023/02/08 00:43:22;;;;;;;5.90;4.83;;;;;;;;;;5033947;28;20189;-89
2023/02/08 00:45:53;;;;;;;4.83;4.33;;;;;;;;;;5035478;28;20178;-88
2023/02/08 00:48:19;;;;;;;6.10;5.03;;;;;;;;;;5034691;28;20192;-88
2023/02/08 00:50:45;;;;;;;6.47;5.47;;;;;;;;;;5035154;28;20166;-88
2023/02/08 00:53:11;;;;;;;6.17;4.80;;;;;;;;;;5030852;28;20440;-87
2023/02/08 00:55:37;;;;;;;5.50;4.87;;;;;;;;;;5031149;28;20225;-88
2023/02/08 00:58:03;;;;;;;5.47;4.93;;;;;;;;;;5027984;28;20479;-87
2023/02/08 01:00:29;;;;;;;8.00;5.17;;;;;;;;;;5033907;28;20538;-90
2023/02/08 01:02:55;;;;;;;5.70;4.77;;;;;;;;;;5030006;28;20178;-87
2023/02/08 01:05:22;;;;;;;5.60;5.00;;;;;;;;;;5029029;28;20184;-87
2023/02/08 01:07:48;;;;;;;5.63;4.53;;;;;;;;;;5021224;28;20440;-88
2023/02/08 01:10:14;;;;;;;6.40;5.33;;;;;;;;;;5034765;28;20170;-88
2023/02/08 01:12:40;;;;;;;5.80;5.13;;;;;;;;;;5032902;28;20420;-87
2023/02/08 01:15:06;;;;;;;6.03;4.80;;;;;;;;;;5033477;28;20432;-87
2023/02/08 01:17:32;;;;;;;6.10;4.80;;;;;;;;;;5016142;28;20221;-89
2023/02/08 01:19:58;;;;;;;6.27;4.87;;;;;;;;;;5024195;28;20174;-87
2023/02/08 01:22:24;;;;;;;5.47;4.93;;;;;;;;;;5030633;28;20301;-88
2023/02/08 01:24:50;;;;;;;5.67;5.00;;;;;;;;;;5032617;28;20193;-88
2023/02/08 01:27:16;;;;;;;5.80;5.03;;;;;;;;;;5033631;28;20551;-88
2023/02/08 01:29:42;;;;;;;4.97;4.27;;;;;;;;;;5033160;28;20436;-88
2023/02/08 01:32:08;;;;;;;6.13;5.13;;;;;;;;;;5034055;28;20417;-88
2023/02/08 01:34:34;;;;;;;6.13;4.97;;;;;;;;;;5026181;28;20165;-89
2023/02/08 01:37:00;;;;;;;5.47;4.87;;;;;;;;;;5033923;28;20468;-88
2023/02/08 01:39:26;;;;;;;6.07;5.20;;;;;;;;;;5033709;28;20721;-88
2023/02/08 01:41:52;;;;;;;5.43;4.93;;;;;;;;;;5027874;28;20265;-88
2023/02/08 01:44:19;;;;;;;6.30;4.43;;;;;;;;;;5031786;28;20466;-87
2023/02/08 01:46:47;;;;;;;6.33;5.10;;;;;;;;;;5033473;28;20494;-90
2023/02/08 01:49:25;;;;;;;5.30;4.60;;;;;;;;;;5030886;28;20594;-88
2023/02/08 01:51:58;;;;;;;5.77;5.07;;;;;;;;;;5027215;28;20455;-88
2023/02/08 01:54:25;;;;;;;5.73;4.47;;;;;;;;;;5027868;28;20895;-88
2023/02/08 01:56:51;;;;;;;6.67;5.10;;;;;;;;;;5028964;28;20472;-86
2023/02/08 01:59:20;;;;;;;5.43;4.93;;;;;;;;;;5030059;28;20417;-88
2023/02/08 02:01:47;;;;;;;5.63;4.43;;;;;;;;;;5030107;28;20428;-88
2023/02/08 02:04:13;;;;;;;5.07;4.07;;;;;;;;;;5032323;28;20982;-87
2023/02/08 02:06:42;;;;;;;5.50;4.73;;;;;;;;;;5033726;28;20535;-88
2023/02/08 02:09:19;;;;;;;5.43;4.80;;;;;;;;;;5033002;28;20452;-88
2023/02/08 02:11:45;;;;;;;5.47;4.80;;;;;;;;;;5032761;28;20436;-88
2023/02/08 02:14:11;;;;;;;5.60;4.80;;;;;;;;;;5029791;28;20435;-88
2023/02/08 02:16:37;;;;;;;6.53;4.87;;;;;;;;;;5031310;28;20502;-88
2023/02/08 02:19:07;;;;;;;6.33;4.97;;;;;;;;;;5033010;28;20563;-88
2023/02/08 02:21:33;;;;;;;6.07;4.80;;;;;;;;;;5022005;28;20428;-88
2023/02/08 02:24:05;;;;;;;5.93;4.87;;;;;;;;;;5032494;28;20914;-88
2023/02/08 02:26:31;;;;;;;6.50;5.13;;;;;;;;;;5031179;28;20432;-88
2023/02/08 02:29:13;;;;;;;5.97;4.97;;;;;;;;;;5029149;28;20427;-87
2023/02/08 02:31:42;;;;;;;5.87;4.83;;;;;;;;;;5031483;28;20181;-87
2023/02/08 02:34:17;;;;;;;5.87;4.80;;;;;;;;;;5031593;28;20427;-88
2023/02/08 02:36:43;;;;;;;6.67;4.90;;;;;;;;;;5032029;28;20463;-88
2023/02/08 02:39:09;;;;;;;5.87;5.13;;;;;;;;;;5031953;28;20492;-88
2023/02/08 02:44:34;;;;;;;5.77;4.53;;;;;;;;;;5031680;28;20246;-88
2023/02/08 02:47:19;;;;;;;4.80;4.30;;;;;;;;;;5032744;28;20532;-88
2023/02/08 02:49:50;;;;;;;6.37;4.80;;;;;;;;;;5031510;28;20454;-89
2023/02/08 02:52:41;;;;;;;5.90;4.90;;;;;;;;;;5041156;28;20955;-87
2023/02/08 02:55:11;;;;;;;5.33;4.70;;;;;;;;;;5042447;28;21037;-87
2023/02/08 02:57:37;;;;;;;6.03;5.43;;;;;;;;;;5031348;28;21050;-87
2023/02/08 03:00:09;;;;;;;5.80;4.37;;;;;;;;;;5029806;28;20916;-88
2023/02/08 03:02:35;;;;;;;5.20;4.53;;;;;;;;;;5030650;28;20440;-89
2023/02/08 03:05:01;;;;;;;5.40;4.63;;;;;;;;;;5037100;28;20447;-90
2023/02/08 03:07:37;;;;;;;5.77;4.80;;;;;;;;;;5041767;28;20432;-88
2023/02/08 03:10:03;;;;;;;5.20;4.47;;;;;;;;;;5037893;28;20517;-88
2023/02/08 03:12:35;;;;;;;7.23;5.23;;;;;;;;;;5034391;28;20439;-88
2023/02/08 03:15:24;;;;;;;6.00;4.53;;;;;;;;;;5036115;28;20224;-88
2023/02/08 03:18:04;;;;;;;5.83;4.87;;;;;;;;;;5033721;28;21003;-88
2023/02/08 03:20:48;;;;;;;5.50;4.83;;;;;;;;;;5036459;28;20511;-88
2023/02/08 03:23:17;;;;;;;6.60;5.33;;;;;;;;;;5036757;28;20451;-88
2023/02/08 03:26:05;;;;;;;5.83;4.90;;;;;;;;;;5035714;28;20503;-88
2023/02/08 03:28:40;;;;;;;7.03;5.07;;;;;;;;;;5028704;28;20417;-88
2023/02/08 03:31:24;;;;;;;6.40;5.53;;;;;;;;;;5035567;28;20542;-88
2023/02/08 03:33:50;;;;;;;6.77;5.70;;;;;;;;;;5029512;28;20897;-87
2023/02/08 03:36:26;;;;;;;5.97;5.30;;;;;;;;;;5035829;28;20440;-89
2023/02/08 03:38:52;;;;;;;5.73;4.83;;;;;;;;;;5035740;28;20724;-87
2023/02/08 03:41:22;;;;;;;4.73;4.13;;;;;;;;;;5034741;28;20439;-87
2023/02/08 03:43:51;;;;;;;4.97;4.40;;;;;;;;;;5024728;28;20943;-88
2023/02/08 03:46:24;;;;;;;5.93;4.80;;;;;;;;;;5022748;28;20444;-87
2023/02/08 03:48:59;;;;;;;5.80;4.53;;;;;;;;;;5026257;28;20463;-87
2023/02/08 03:51:26;;;;;;;6.57;4.67;;;;;;;;;;5030350;28;20508;-88
2023/02/08 03:53:53;;;;;;;7.77;5.07;;;;;;;;;;5033312;28;20452;-88
2023/02/08 03:56:45;;;;;;;5.40;4.50;;;;;;;;;;5030430;28;20480;-88
2023/02/08 03:59:22;;;;;;;5.23;4.27;;;;;;;;;;5020659;28;20498;-87
2023/02/08 04:01:51;;;;;;;5.83;4.60;;;;;;;;;;5032550;28;20435;-88
2023/02/08 04:04:18;;;;;;;5.70;4.60;;;;;;;;;;5035413;28;20464;-88
2023/02/08 04:06:44;;;;;;;4.83;4.33;;;;;;;;;;5035793;28;20456;-87
2023/02/08 04:09:10;;;;;;;5.83;4.97;;;;;;;;;;5035445;28;20920;-87
2023/02/08 04:11:36;;;;;;;6.17;4.87;;;;;;;;;;5033297;28;20432;-89
2023/02/08 04:14:02;;;;;;;5.40;4.90;;;;;;;;;;5033177;28;20443;-87
2023/02/08 04:16:28;;;;;;;6.60;5.37;;;;;;;;;;5034364;28;20463;-88
2023/02/08 04:18:54;;;;;;;6.23;5.00;;;;;;;;;;5027740;28;20426;-88
2023/02/08 04:21:20;;;;;;;6.37;4.63;;;;;;;;;;5029429;28;20437;-87
2023/02/08 04:23:47;;;;;;;8.43;5.80;;;;;;;;;;5034350;28;20420;-87
2023/02/08 04:26:13;;;;;;;5.80;5.20;;;;;;;;;;5032595;28;20439;-88
2023/02/08 04:28:39;;;;;;;5.83;4.67;;;;;;;;;;5025327;28;20449;-89
2023/02/08 04:31:05;;;;;;;5.07;4.53;;;;;;;;;;5020896;28;20803;-89
2023/02/08 04:33:31;;;;;;;5.73;5.13;;;;;;;;;;5033383;28;21779;-88
2023/02/08 04:35:57;;;;;;;5.53;5.03;;;;;;;;;;5030728;28;20517;-88
2023/02/08 04:38:23;;;;;;;6.17;4.53;;;;;;;;;;5034780;28;20748;-88
2023/02/08 04:40:49;;;;;;;6.23;4.90;;;;;;;;;;5033905;28;20433;-88
2023/02/08 04:43:15;;;;;;;5.67;4.67;;;;;;;;;;5033964;28;20439;-87
2023/02/08 04:45:41;;;;;;;6.10;5.10;;;;;;;;;;5035837;28;20436;-87
2023/02/08 04:48:07;;;;;;;6.60;5.00;;;;;;;;;;5035367;28;20441;-88
2023/02/08 04:50:33;;;;;;;6.80;5.13;;;;;;;;;;5028422;28;20442;-87
2023/02/08 04:52:59;;;;;;;4.73;4.23;;;;;;;;;;5031529;28;20934;-88
2023/02/08 04:55:25;;;;;;;6.27;5.00;;;;;;;;;;5033236;28;20968;-88
2023/02/08 04:57:51;;;;;;;5.70;4.80;;;;;;;;;;5033102;28;21013;-88
2023/02/08 05:00:18;;;;;;;6.13;5.20;;;;;;;;;;5026327;28;20951;-88
2023/02/08 05:02:44;;;;;;;7.77;5.50;;;;;;;;;;5035880;28;20409;-88
2023/02/08 05:05:10;;;;;;;5.97;5.23;;;;;;;;;;5034810;28;20578;-87
2023/02/08 05:07:36;;;;;;;6.77;4.97;;;;;;;;;;5034181;28;20432;-87
2023/02/08 05:10:03;;;;;;;5.97;4.57;;;;;;;;;;5030581;28;20495;-88
2023/02/08 05:12:29;;;;;;;5.00;4.43;;;;;;;;;;5013542;28;20975;-88
2023/02/08 05:14:56;;;;;;;6.03;5.23;;;;;;;;;;5033962;28;20463;-88
2023/02/08 05:17:22;;;;;;;6.63;4.67;;;;;;;;;;5034171;28;20538;-88
2023/02/08 05:19:48;;;;;;;5.27;4.33;;;;;;;;;;5034280;28;20450;-88
2023/02/08 05:22:14;;;;;;;9.27;4.60;;;;;;;;;;5035062;28;20432;-88
2023/02/08 05:24:40;;;;;;;6.03;4.80;;;;;;;;;;5033987;28;20436;-87
2023/02/08 05:27:06;;;;;;;7.03;5.17;;;;;;;;;;5017686;28;21288;-88
2023/02/08 05:29:32;;;;;;;6.50;5.50;;;;;;;;;;5034107;28;20900;-88
2023/02/08 05:31:58;;;;;;;5.77;4.53;;;;;;;;;;5033566;28;21134;-89
2023/02/08 05:34:24;;;;;;;7.60;4.97;;;;;;;;;;5035146;28;20435;-89
2023/02/08 05:36:50;;;;;;;5.47;4.00;;;;;;;;;;5033070;28;20546;-87
2023/02/08 05:39:16;;;;;;;5.47;4.73;;;;;;;;;;5034701;28;20405;-87
2023/02/08 05:41:42;;;;;;;4.70;4.10;;;;;;;;;;5031511;28;20421;-87
2023/02/08 05:44:08;;;;;;;6.03;4.60;;;;;;;;;;5033321;28;20443;-88
2023/02/08 05:46:34;;;;;;;5.63;4.93;;;;;;;;;;5032371;28;20896;-88
2023/02/08 05:49:00;;;;;;;5.30;4.30;;;;;;;;;;5033123;28;21048;-86
2023/02/08 05:51:26;;;;;;;5.93;4.70;;;;;;;;;;5032599;28;20417;-87
2023/02/08 05:53:52;;;;;;;5.93;4.77;;;;;;;;;;5031683;28;20456;-88
2023/02/08 05:56:18;;;;;;;7.10;4.73;;;;;;;;;;5025679;28;21019;-88
2023/02/08 05:58:44;;;;;;;6.23;4.97;;;;;;;;;;5024280;28;20435;-88
2023/02/08 06:01:11;;;;;;;4.70;3.97;;;;;;;;;;5021292;28;20429;-89
2023/02/08 06:03:38;;;;;;;8.57;4.90;;;;;;;;;;5022209;28;20481;-88
2023/02/08 06:06:04;;;;;;;5.67;4.47;;;;;;;;;;5031815;28;20436;-89
2023/02/08 06:08:30;;;;;;;7.43;4.50;;;;;;;;;;5037867;28;20448;-90
2023/02/08 06:10:56;;;;;;;6.80;5.13;;;;;;;;;;5032825;28;20441;-89
2023/02/08 06:13:22;;;;;;;6.07;4.93;;;;;;;;;;5030768;28;20419;-87
2023/02/08 06:15:48;;;;;;;5.80;4.63;;;;;;;;;;5033833;28;20428;-87
2023/02/08 06:18:14;;;;;;;5.00;4.23;;;;;;;;;;5034922;28;20456;-86
2023/02/08 06:20:40;;;;;;;6.53;5.07;;;;;;;;;;5032148;28;20436;-90
2023/02/08 06:23:06;;;;;;;7.63;5.63;;;;;;;;;;5020716;28;20415;-83
2023/02/08 06:25:32;;;;;;;6.90;5.40;;;;;;;;;;5036646;28;20433;-87
2023/02/08 06:27:58;;;;;;;7.03;5.27;;;;;;;;;;5038434;28;20945;-87
2023/02/08 06:30:25;;;;;;;6.53;5.03;;;;;;;;;;5038218;28;20961;-88
2023/02/08 06:32:51;;;;;;;5.77;4.30;;;;;;;;;;5039320;28;20490;-88
2023/02/08 06:35:17;;;;;;;6.40;5.33;;;;;;;;;;5036940;28;20432;-86
2023/02/08 06:37:43;;;;;;;5.77;4.77;;;;;;;;;;5036281;28;20609;-86
2023/02/08 06:40:09;;;;;;;6.77;5.40;;;;;;;;;;5037330;28;20471;-84
2023/02/08 06:42:35;;;;;;;6.87;4.90;;;;;;;;;;5025529;28;20415;-88
2023/02/08 06:45:01;;;;;;;6.00;5.00;;;;;;;;;;5038264;28;20755;-89
2023/02/08 06:47:28;;;;;;;5.03;3.90;;;;;;;;;;5037426;28;20440;-88
2023/02/08 06:49:54;;;;;;;6.00;4.97;;;;;;;;;;5032153;28;20429;-89
2023/02/08 06:52:21;;;;;;;6.23;4.83;;;;;;;;;;5036090;28;20436;-85
2023/02/08 06:54:47;;;;;;;6.47;5.20;;;;;;;;;;5035078;28;20513;-86
2023/02/08 06:57:13;;;;;;;8.37;5.57;;;;;;;;;;5025247;28;20495;-86
2023/02/08 06:59:40;;;;;;;17.80;5.23;;;;;;;;;;5031096;28;20428;-86
2023/02/08 07:02:10;;;;;;;14.87;5.57;;;;;;;;;;5035970;28;20467;-88
2023/02/08 07:04:36;;;;;;;7.37;5.43;;;;;;;;;;5036342;28;20436;-84
2023/02/08 07:07:02;;;;;;;11.33;5.33;;;;;;;;;;5032783;28;20437;-87
2023/02/08 07:09:28;;;;;;;7.13;5.77;;;;;;;;;;5030140;28;21043;-88
2023/02/08 07:11:54;;;;;;;8.97;4.43;;;;;;;;;;5034347;28;20439;-87
2023/02/08 07:14:20;;;;;;;14.97;5.73;;;;;;;;;;5031812;28;20431;-87
2023/02/08 07:16:46;;;;;;;6.53;5.07;;;;;;;;;;5037838;28;20464;-88
2023/02/08 07:19:12;;;;;;;6.87;5.07;;;;;;;;;;5037595;28;20397;-88
2023/02/08 07:21:45;;;;;;;5.77;4.50;;;;;;;;;;5037907;28;20396;-87
2023/02/08 07:24:11;;;;;;;9.10;5.50;;;;;;;;;;5037601;28;20880;-87
2023/02/08 07:26:37;;;;;;;7.63;5.03;;;;;;;;;;5031014;28;20417;-88
2023/02/08 07:29:04;;;;;;;10.00;5.23;;;;;;;;;;5017247;28;20405;-88
2023/02/08 07:31:30;;;;;;;12.53;5.50;;;;;;;;;;5018302;28;20906;-88
2023/02/08 07:33:56;;;;;;;6.70;5.10;;;;;;;;;;5017687;28;20409;-88
2023/02/08 07:36:22;;;;;;;6.47;4.87;;;;;;;;;;5017082;28;20897;-88
2023/02/08 07:38:48;;;;;;;8.87;5.07;;;;;;;;;;5017516;28;20404;-88
2023/02/08 07:41:14;;;;;;;7.33;4.83;;;;;;;;;;5017872;28;20834;-87
2023/02/08 07:43:41;;;;;;;7.37;5.23;;;;;;;;;;5037103;28;20412;-88
2023/02/08 07:46:07;;;;;;;5.63;4.60;;;;;;;;;;5036611;28;20405;-88
2023/02/08 07:48:34;;;;;;;7.20;5.60;;;;;;;;;;5026170;28;20417;-87
2023/02/08 07:51:00;;;;;;;8.47;4.87;;;;;;;;;;5037682;28;20405;-87
2023/02/08 07:53:26;;;;;;;7.87;5.47;;;;;;;;;;5037364;28;20441;-87
2023/02/08 07:55:52;;;;;;;6.53;4.93;;;;;;;;;;5036253;28;20479;-87
2023/02/08 07:58:18;;;;;;;7.63;5.60;;;;;;;;;;5037233;28;20452;-87
2023/02/08 08:00:44;;;;;;;8.17;4.87;;;;;;;;;;5037257;28;20400;-87
2023/02/08 08:03:10;;;;;;;6.10;4.50;;;;;;;;;;5035886;28;20409;-88
2023/02/08 08:05:37;;;;;;;5.60;4.53;;;;;;;;;;5036858;28;20401;-88
2023/02/08 08:08:03;;;;;;;7.20;4.70;;;;;;;;;;5017201;28;20434;-88
2023/02/08 08:10:29;;;;;;;7.17;5.37;;;;;;;;;;5015607;28;20410;-88
2023/02/08 08:12:55;;;;;;;6.13;5.07;;;;;;;;;;5032594;28;20439;-88
2023/02/08 08:15:21;;;;;;;8.50;5.43;;;;;;;;;;5036963;28;20432;-88
2023/02/08 08:17:47;;;;;;;8.47;5.43;;;;;;;;;;5019640;28;20444;-88
2023/02/08 08:20:13;;;;;;;5.93;4.83;;;;;;;;;;5016567;28;20398;-88
2023/02/08 08:22:39;;;;;;;8.53;5.60;;;;;;;;;;5016783;28;20409;-87
2023/02/08 08:25:05;;;;;;;6.57;5.10;;;;;;;;;;5016967;28;21039;-87
2023/02/08 08:27:32;;;;;;;6.40;5.20;;;;;;;;;;5030904;28;20447;-88
2023/02/08 08:29:58;;;;;;;8.40;4.83;;;;;;;;;;5037232;28;20816;-87
2023/02/08 08:32:25;;;;;;;7.63;5.60;;;;;;;;;;5036835;28;20903;-88
2023/02/08 08:34:51;;;;;;;8.20;5.17;;;;;;;;;;5036533;28;20401;-87
2023/02/08 08:37:17;;;;;;;5.27;4.73;;;;;;;;;;5024275;28;20453;-87
2023/02/08 08:39:43;;;;;;;7.23;5.13;;;;;;;;;;5016329;28;20971;-87
2023/02/08 08:42:09;;;;;;;7.47;5.23;;;;;;;;;;5017130;28;20422;-88
2023/02/08 08:44:35;;;;;;;7.07;5.30;;;;;;;;;;5016165;28;20394;-87
2023/02/08 08:47:01;;;;;;;6.97;4.87;;;;;;;;;;5016733;28;20468;-87
2023/02/08 08:49:28;;;;;;;6.37;4.60;;;;;;;;;;5032545;28;20783;-88
2023/02/08 08:51:54;;;;;;;6.97;4.77;;;;;;;;;;5037312;28;20733;-87
2023/02/08 08:54:21;;;;;;;7.37;5.37;;;;;;;;;;5036241;28;21172;-88
2023/02/08 08:56:47;;;;;;;7.53;5.20;;;;;;;;;;5035251;28;20488;-87
2023/02/08 08:59:13;;;;;;;8.03;5.70;;;;;;;;;;5036280;28;20393;-87
2023/02/08 09:01:41;;;;;;;6.37;4.90;;;;;;;;;;5035753;28;20428;-87
2023/02/08 09:04:07;;;;;;;7.60;5.50;;;;;;;;;;5033443;28;20393;-87
2023/02/08 09:06:34;;;;;;;7.47;5.40;;;;;;;;;;5029682;28;20440;-88
2023/02/08 09:09:00;;;;;;;8.20;5.10;;;;;;;;;;5031551;28;20432;-88
2023/02/08 09:11:26;;;;;;;7.90;5.30;;;;;;;;;;5029844;28;20441;-88
2023/02/08 09:13:55;;;;;;;6.83;4.87;;;;;;;;;;5034474;28;20397;-89
2023/02/08 09:16:22;;;;;;;7.63;5.17;;;;;;;;;;5021268;28;20441;-88
2023/02/08 09:18:48;;;;;;;5.50;4.83;;;;;;;;;;5022662;28;20425;-88
2023/02/08 09:21:16;;;;;;;7.10;5.07;;;;;;;;;;5018718;28;20409;-88
2023/02/08 09:23:43;;;;;;;5.83;4.43;;;;;;;;;;5018034;28;20417;-88
2023/02/08 09:26:10;;;;;;;6.43;5.10;;;;;;;;;;5017930;28;20398;-88
2023/02/08 09:28:36;;;;;;;6.47;5.00;;;;;;;;;;5036033;28;20400;-88
2023/02/08 09:31:13;;;;;;;6.20;5.30;;;;;;;;;;5036893;28;20417;-87
2023/02/08 09:33:39;;;;;;;8.10;5.40;;;;;;;;;;5036672;28;21015;-87
2023/02/08 09:36:06;;;;;;;5.53;4.33;;;;;;;;;;5034638;28;20955;-88
2023/02/08 09:38:32;;;;;;;7.13;5.10;;;;;;;;;;5035845;28;20472;-87
2023/02/08 09:41:06;;;;;;;5.30;4.60;;;;;;;;;;5035364;28;20393;-87
2023/02/08 09:43:41;;;;;;;5.67;4.63;;;;;;;;;;5035216;28;20999;-87
2023/02/08 09:46:22;;;;;;;9.97;4.77;;;;;;;;;;5049543;28;20412;-88
2023/02/08 09:48:50;;;;;;;7.50;4.57;;;;;;;;;;5026684;28;20463;-88
2023/02/08 09:51:16;;;;;;;6.10;5.07;;;;;;;;;;5034308;28;20491;-89
2023/02/08 09:53:49;;;;;;;6.90;4.47;;;;;;;;;;5035755;28;20470;-87
2023/02/08 09:56:16;;;;;;;5.50;4.40;;;;;;;;;;5035092;28;20464;-87
2023/02/08 09:58:44;;;;;;;6.37;4.97;;;;;;;;;;5028825;28;20956;-88
2023/02/08 10:01:19;;;;;;;5.03;4.17;;;;;;;;;;5015662;28;20397;-88
2023/02/08 10:03:46;;;;;;;8.20;5.50;;;;;;;;;;5015157;28;20488;-88
2023/02/08 10:06:14;;;;;;;8.40;3.90;;;;;;;;;;5015663;28;20398;-87
2023/02/08 10:08:41;;;;;;;6.47;4.57;;;;;;;;;;5015850;28;20423;-88
2023/02/08 10:11:10;;;;;;;6.77;4.57;;;;;;;;;;5013990;28;20504;-88
2023/02/08 10:13:44;;;;;;;5.47;3.90;;;;;;;;;;5034844;28;20519;-88
2023/02/08 10:16:15;;;;;;;6.43;4.20;;;;;;;;;;5034514;28;20459;-88
2023/02/08 10:18:55;;;;;;;5.10;4.47;;;;;;;;;;5036068;28;20467;-87
2023/02/08 10:21:24;;;;;;;6.47;4.93;;;;;;;;;;5035663;28;20451;-88
2023/02/08 10:24:00;;;;;;;8.30;5.03;;;;;;;;;;5035182;28;20415;-89
2023/02/08 10:26:44;;;;;;;5.93;4.23;;;;;;;;;;5031909;28;20432;-88
2023/02/08 10:29:19;;;;;;;8.30;4.40;;;;;;;;;;5015240;28;20394;-88
2023/02/08 10:32:04;;;;;;;4.67;3.97;;;;;;;;;;5013249;28;20409;-88
2023/02/08 10:34:33;;;;;;;5.43;4.00;;;;;;;;;;5015065;28;20421;-88
2023/02/08 10:37:01;;;;;;;5.10;3.90;;;;;;;;;;5021973;28;21867;-88
2023/02/08 10:39:29;;;;;;;5.80;4.20;;;;;;;;;;5034798;28;20948;-88
2023/02/08 10:41:55;;;;;;;4.93;3.87;;;;;;;;;;5034783;28;20436;-88
2023/02/08 10:44:30;;;;;;;5.57;4.70;;;;;;;;;;5035150;28;20389;-88
2023/02/08 10:47:05;;;;;;;6.63;4.53;;;;;;;;;;5034270;28;20440;-89
2023/02/08 10:49:39;;;;;;;5.03;4.00;;;;;;;;;;5035893;28;20420;-88
2023/02/08 10:52:05;;;;;;;4.37;3.90;;;;;;;;;;5034220;28;20399;-89
2023/02/08 10:54:33;;;;;;;5.43;4.40;;;;;;;;;;5032945;28;20947;-88
2023/02/08 10:57:02;;;;;;;5.43;4.00;;;;;;;;;;5032473;28;20534;-88
2023/02/08 10:59:33;;;;;;;5.20;3.77;;;;;;;;;;5033533;28;21116;-88
2023/02/08 11:01:59;;;;;;;5.40;4.30;;;;;;;;;;5033699;28;20393;-88
2023/02/08 11:04:25;;;;;;;5.00;4.17;;;;;;;;;;5032525;28;20749;-88
2023/02/08 11:06:53;;;;;;;5.00;4.23;;;;;;;;;;5036025;28;20434;-88
2023/02/08 11:09:29;;;;;;;5.23;4.23;;;;;;;;;;5037038;28;20390;-88
2023/02/08 11:11:57;;;;;;;4.87;3.47;;;;;;;;;;5037863;28;20428;-87
2023/02/08 11:14:25;;;;;;;5.43;4.27;;;;;;;;;;5038242;28;20417;-88
2023/02/08 11:16:58;;;;;;;4.00;3.20;;;;;;;;;;5027083;28;20475;-89
2023/02/08 11:19:33;;;;;;;4.50;3.83;;;;;;;;;;5019099;28;20393;-88
2023/02/08 11:22:00;;;;;;;4.03;3.60;;;;;;;;;;5018935;28;20405;-88
2023/02/08 11:24:40;;;;;;;4.23;3.23;;;;;;;;;;5019626;28;20390;-88
2023/02/08 11:27:29;;;;;;;3.97;3.53;;;;;;;;;;5031700;28;20511;-87
2023/02/08 11:30:14;;;;;;;6.07;3.90;;;;;;;;;;5029432;28;20919;-88
2023/02/08 11:32:40;;;;;;;4.53;3.60;;;;;;;;;;5039426;28;20420;-89
2023/02/08 11:35:23;;;;;;;4.17;3.47;;;;;;;;;;5039326;28;20419;-87
2023/02/08 11:37:51;;;;;;;3.47;3.00;;;;;;;;;;5020650;28;20526;-88
2023/02/08 11:40:21;;;;;;;6.87;3.43;;;;;;;;;;5018951;28;20413;-87
2023/02/08 11:42:48;;;;;;;4.67;3.47;;;;;;;;;;5035941;28;20436;-88
2023/02/08 11:45:21;;;;;;;3.43;3.13;;;;;;;;;;5038998;28;20393;-88
2023/02/08 11:47:48;;;;;;;4.30;3.17;;;;;;;;;;5022518;28;20500;-88
2023/02/08 11:50:25;;;;;;;4.23;3.17;;;;;;;;;;5038233;28;20419;-88
2023/02/08 11:52:53;;;;;;;4.40;3.07;;;;;;;;;;5038251;28;20398;-88
2023/02/08 11:55:19;;;;;;;3.73;3.20;;;;;;;;;;5038118;28;20503;-88
2023/02/08 11:57:53;;;;;;;3.50;3.20;;;;;;;;;;5037048;28;20464;-88
2023/02/08 12:00:21;;;;;;;5.60;3.57;;;;;;;;;;5038063;28;20166;-88
2023/02/08 12:02:49;;;;;;;4.93;3.43;;;;;;;;;;5038467;28;20429;-88
2023/02/08 12:05:23;;;;;;;3.47;3.07;;;;;;;;;;5037894;28;20412;-88
2023/02/08 12:08:12;;;;;;;3.80;3.40;;;;;;;;;;5037361;28;20432;-87
2023/02/08 12:10:38;;;;;;;5.13;3.63;;;;;;;;;;5037596;28;20401;-90
2023/02/08 12:13:19;;;;;;;4.13;3.63;;;;;;;;;;5037235;28;20451;-88
2023/02/08 12:16:04;;;;;;;4.67;3.73;;;;;;;;;;5037767;28;20405;-88
2023/02/08 12:18:42;;;;;;;6.03;3.93;;;;;;;;;;5037455;28;20455;-88
2023/02/08 12:21:17;;;;;;;5.60;3.90;;;;;;;;;;5036107;28;20413;-88
2023/02/08 12:23:48;;;;;;;5.27;4.13;;;;;;;;;;5037612;28;20416;-88
2023/02/08 12:26:34;;;;;;;6.60;4.53;;;;;;;;;;5031081;28;20212;-88
2023/02/08 12:29:19;;;;;;;7.13;4.13;;;;;;;;;;5010801;28;20482;-89
2023/02/08 12:32:11;;;;;;;5.83;4.23;;;;;;;;;;5017440;28;20405;-89
2023/02/08 12:34:56;;;;;;;7.73;3.73;;;;;;;;;;5001959;28;20418;-88
2023/02/08 12:43:23;;;;;;;6.00;3.77;;;;;;;;;;5018225;28;20245;-89
2023/02/08 12:45:49;;;;;;;4.10;3.47;;;;;;;;;;5018076;28;20908;-88
2023/02/08 12:48:24;;;;;;;5.10;4.03;;;;;;;;;;5024022;28;20562;-88
2023/02/08 12:51:13;;;;;;;5.50;4.17;;;;;;;;;;5036829;28;20243;-88
2023/02/08 12:53:43;;;;;;;3.97;3.07;;;;;;;;;;5036831;28;20483;-87
2023/02/08 12:56:27;;;;;;;3.97;3.47;;;;;;;;;;5034669;28;20312;-88
2023/02/08 12:58:56;;;;;;;4.27;3.00;;;;;;;;;;5031300;28;20237;-88
2023/02/08 13:01:25;;;;;;;4.30;3.40;;;;;;;;;;5034589;28;20212;-87
2023/02/08 13:04:12;;;;;;;5.67;3.67;;;;;;;;;;5036339;28;20253;-89
2023/02/08 13:06:42;;;;;;;3.67;3.20;;;;;;;;;;5025825;28;20228;-87
2023/02/08 13:09:14;;;;;;;3.43;3.13;;;;;;;;;;5017062;28;20159;-88
2023/02/08 13:11:40;;;;;;;3.97;2.80;;;;;;;;;;5021785;28;20181;-89
2023/02/08 13:14:25;;;;;;;3.80;3.27;;;;;;;;;;5035989;28;20166;-88
2023/02/08 13:16:55;;;;;;;5.63;3.20;;;;;;;;;;5032818;28;20213;-88
2023/02/08 13:19:31;;;;;;;3.77;2.30;;;;;;;;;;5034463;28;20182;-89
2023/02/08 13:21:58;;;;;;;4.50;3.03;;;;;;;;;;5035098;28;20506;-84
2023/02/08 13:24:39;;;;;;;3.67;2.93;;;;;;;;;;5026525;28;20186;-91
2023/02/08 13:27:07;;;;;;;4.33;3.07;;;;;;;;;;5034557;28;20193;-89
2023/02/08 13:29:33;;;;;;;3.20;2.90;;;;;;;;;;5035982;28;20212;-87
2023/02/08 13:32:03;;;;;;;3.00;2.70;;;;;;;;;;5035812;28;20251;-89
2023/02/08 13:34:32;;;;;;;4.03;2.47;;;;;;;;;;5035956;28;20201;-88
2023/02/08 13:37:03;;;;;;;3.30;2.57;;;;;;;;;;5020526;28;20206;-88
2023/02/08 13:39:38;;;;;;;4.90;2.70;;;;;;;;;;5029097;28;20165;-88
2023/02/08 13:42:06;;;;;;;4.10;2.57;;;;;;;;;;5024215;28;20241;-88
2023/02/08 13:44:38;;;;;;;2.53;2.30;;;;;;;;;;5025314;28;20186;-88
2023/02/08 13:47:05;;;;;;;5.13;2.83;;;;;;;;;;5027727;28;20185;-88
2023/02/08 13:49:51;;;;;;;7.07;2.80;;;;;;;;;;5034869;28;20186;-88
2023/02/08 13:52:33;;;;;;;3.73;2.87;;;;;;;;;;5024639;28;20220;-88
2023/02/08 13:55:17;;;;;;;3.13;2.80;;;;;;;;;;5025577;28;20235;-89
2023/02/08 13:57:51;;;;;;;2.10;1.90;;;;;;;;;;5030587;28;20284;-88
2023/02/08 14:00:26;;;;;;;3.43;2.70;;;;;;;;;;5037193;28;20197;-88
2023/02/08 14:03:03;;;;;;;2.63;2.40;;;;;;;;;;5031203;28;20177;-88
2023/02/08 14:05:48;;;;;;;3.43;2.30;;;;;;;;;;5034639;28;20178;-87
2023/02/08 14:08:26;;;;;;;3.93;2.77;;;;;;;;;;5034746;28;20213;-88
2023/02/08 14:11:01;;;;;;;3.37;2.40;;;;;;;;;;5035804;28;20185;-88
2023/02/08 14:13:31;;;;;;;2.80;2.60;;;;;;;;;;5034165;28;20603;-89
2023/02/08 14:16:15;;;;;;;2.73;2.50;;;;;;;;;;5035258;28;20481;-88
2023/02/08 14:18:50;;;;;;;3.67;2.53;;;;;;;;;;5030895;28;20249;-87
2023/02/08 14:21:25;;;;;;;3.13;2.77;;;;;;;;;;5026948;28;20178;-88
2023/02/08 14:23:58;;;;;;;2.90;2.43;;;;;;;;;;5032596;28;20508;-88
2023/02/08 14:26:24;;;;;;;2.97;2.30;;;;;;;;;;5029370;28;20185;-88
2023/02/08 14:28:54;;;;;;;2.80;2.50;;;;;;;;;;5029859;28;20185;-88
2023/02/08 14:31:22;;;;;;;2.33;2.00;;;;;;;;;;5032055;28;20173;-87
2023/02/08 14:33:53;;;;;;;3.00;2.43;;;;;;;;;;5029771;28;20200;-90
2023/02/08 14:36:33;;;;;;;2.93;2.20;;;;;;;;;;5030169;28;20515;-88
2023/02/08 14:39:18;;;;;;;2.83;2.37;;;;;;;;;;5029706;28;20321;-90
2023/02/08 14:41:49;;;;;;;5.30;2.20;;;;;;;;;;5029627;28;20185;-90
2023/02/08 14:44:33;;;;;;;2.73;2.00;;;;;;;;;;5036996;28;20205;-91
2023/02/08 14:46:59;;;;;;;3.23;2.40;;;;;;;;;;5031915;28;20193;-92
2023/02/08 14:49:26;;;;;;;3.03;2.37;;;;;;;;;;5040524;28;20578;-90
2023/02/08 14:52:02;;;;;;;2.50;2.30;;;;;;;;;;5038020;28;20197;-91
2023/02/08 14:54:38;;;;;;;4.47;2.40;;;;;;;;;;5042784;28;20225;-89
2023/02/08 14:57:06;;;;;;;4.07;2.43;;;;;;;;;;5051348;28;20237;-91
2023/02/08 14:59:34;;;;;;;4.20;2.80;;;;;;;;;;5038839;28;20166;-91
2023/02/08 15:02:02;;;;;;;2.73;2.13;;;;;;;;;;5030639;28;20185;-89
2023/02/08 15:04:28;;;;;;;2.17;1.97;;;;;;;;;;5038602;28;20297;-92
2023/02/08 15:06:57;;;;;;;2.53;2.27;;;;;;;;;;5039580;28;20166;-89